Logo AVAMET
Benvolgut visitant, si us plau, ingressa Recuperar contrasenya
AVAMET paisatges

les Useres

Dades diàries. Acumulats / Últims 30 dies disponibles

Data Temperatura (°C) Humitat rel. (%) Pressió rel. (hPa) Vent (km/h) Precipitació
Mínima Mitjana Màxima Amplitud
tèrmica
Mínima Mitjana Màxima Mínima Mitjana Màxima Predom. Mitjana Ràfega
màxima
Total
(mm)
Índex-n
Mínima Mitjana Màxima Mínima Mitjana Màxima n
0 a 1
P0 max
mm 5'
Dades mensuals acumulades fins l'últim dia disponible
03/2020 4,3 9,1 14,5 12,4 8,6 16,4 24,8 20,5 27 66 96 992 1.016 1.028   8,2 104,6 117,6
Dades anuals acumulades fins l'últim dia disponible
2020 1,8 8,2 15,7 11,9 6,2 16,4 24,8 23,0 21 67 96 992 1.021 1.033   6,2 104,6 269,8
Últims 30 dies disponibles
28-03-2020 4,6     10,3     15,5 10,9 51 62 81 1.015 1.017 1.018 NNW 5,3 25,7 0,0
27-03-2020 4,3     7,9     12,7 8,4 46 69 83 1.011 1.013 1.016 NNW 6,4 25,7 0,0
26-03-2020 4,3     7,6     11,9 7,6 47 70 90 1.006 1.009 1.012 NNW 9,7 61,2 0,0
25-03-2020 5,2     6,7     8,6 3,4 74 85 91 1.012 1.016 1.017 NNW 5,5 24,1 6,0 0,14 0,80
24-03-2020 7,3     9,4     10,7 3,4 78 86 92 1.016 1.017 1.018 NE 12,4 41,8 6,2 0,46 1,50
23-03-2020 9,7     10,7     12,7 3,0 78 87 93 1.014 1.016 1.018 NNW 6,4 27,4 16,6 0,34 1,20
22-03-2020 8,6     10,2     12,4 3,8 75 85 92 1.010 1.012 1.014 NNW 2,9 22,5 5,6 0,24 0,80
21-03-2020 7,7     10,1     13,3 5,6 67 79 92 1.011 1.013 1.017 NW 3,1 16,1 0,0
20-03-2020 8,0     10,3     13,2 5,2 72 80 87 1.016 1.018 1.020 NNW 5,5 27,4 0,0
19-03-2020 8,1     11,2     15,3 7,2 61 74 91 1.019 1.021 1.024 ESE 4,0 25,7 0,0
18-03-2020 9,4     11,9     15,3 5,9 53 72 91 1.024 1.026 1.028 NNW 5,1 24,1 0,0
17-03-2020 11,0     11,8     12,7 1,7 76 92 96 1.018 1.024 1.028 NNW 13,5 45,1 55,6
16-03-2020 9,9     11,1     12,7 2,8 74 91 96 1.010 1.013 1.018 ENE 6,1 32,2 25,6
15-03-2020 8,1     11,9     16,8 8,7 63 80 91 1.013 1.016 1.019 SE 6,8 41,8 0,0
14-03-2020 10,1     13,5     18,8 8,7 55 71 86 1.017 1.018 1.020 SE 4,3 33,8 0,0
13-03-2020 10,2     13,3     16,9 6,7 58 70 86 1.016 1.018 1.020 ESE 3,9 22,5 0,0
12-03-2020 13,3     17,6     23,0 9,7 45 61 81 1.015 1.017 1.020 SE 3,7 25,7 0,0
11-03-2020 14,5     19,1     24,8 10,3 34 48 63 1.020 1.021 1.023 SE 5,6 33,8 0,0
10-03-2020 11,0     13,3     16,4 5,4 45 62 80 1.020 1.022 1.024 SE 7,6 57,9 0,0
09-03-2020 11,2     14,8     19,2 8,0 27 46 63 1.018 1.020 1.021 NW 10,5 46,7 0,0
08-03-2020 8,8     13,9     18,9 10,1 34 51 66 1.019 1.021 1.023 SE 5,6 32,2 0,0
07-03-2020 7,7     12,2     17,1 9,4 40 46 55 1.018 1.020 1.023 NNW 9,3 53,1 0,0
06-03-2020 8,7     11,4     13,9 5,2 30 45 66 1.009 1.011 1.018 NW 15,8 72,4 0,2
05-03-2020 12,4     16,3     21,9 9,5 30 49 62 1.003 1.008 1.013 NW 8,5 56,3 0,0
04-03-2020 13,8     17,7     24,0 10,2 37 52 62 1.013 1.014 1.016 SE 5,8 37,0 0,0
03-03-2020 6,9     13,6     20,7 13,8 33 47 62 1.005 1.011 1.014 WNW 16,9 82,1 0,0
02-03-2020 6,6     13,5     17,6 11,0 33 54 79 992 1.002 1.012 WNW 27,2 104,6 1,8
01-03-2020 12,9     16,6     21,3 8,4 30 47 66 1.006 1.009 1.011 SW 12,6 43,5 0,0
29-02-2020 8,1     15,2     22,7 14,6 32 55 81 1.007 1.010 1.016 SW 10,3 46,7 0,0
28-02-2020 10,1     15,2     19,7 9,6 36 52 75 1.016 1.018 1.020 SE 8,2 43,5 0,0
Últims 13 mesos disponibles
02/2020 4,3 9,2 15,7 13,6 12,6 18,9 24,4 20,1 35 63 89 1.010 1.023 1.031 SE 5,0 62,8 0,8
01/2020 1,8 6,4 12,1 9,8 6,2 14,1 20,0 18,2 52 71 93 1.017 1.024 1.031 SE 5,5 74,0 151,4
12/2019 4,2 9,4 14,9 12,5 10,2 16,1 22,9 18,7 40 65 86 998 1.017 1.031 SE 7,1 96,6 96,2
11/2019 5,4 10,0 17,0 13,4 12,3 17,3 25,4 20,0 43 53 73 994 1.008 1.016 SE 9,5 78,9 3,2
10/2019 9,7 14,8 18,2 18,7 14,3 23,3 30,4 20,7 43 65 82 1.005 1.015 1.020 SE 6,0 56,3 24,8
09/2019 12,8 17,8 20,5 21,7 19,6 26,3 30,6 17,8 51 67 81 1.008 1.016 1.025 SE 7,5 66,0 33,8
08/2019 17,3 20,3 25,9 24,7 23,8 29,9 36,4 19,1 48 65 80 1.009 1.014 1.019 SE 6,4 66,0 47,0
07/2019 19,3 20,9 23,3 25,6 25,5 31,0 35,1 15,8 37 55 71 1.004 1.012 1.019 SE 6,9 53,1 12,8
06/2019 10,3 16,8 23,7 21,7 18,7 26,9 38,4 28,1 26 54 72 1.006 1.013 1.020 SE 7,4 61,2 0,2
05/2019 8,5 12,2 17,1 16,8 15,9 21,9 28,2 19,7 41 61 85 1.003 1.013 1.022 SE 7,5 77,2 31,4
04/2019 5,8 9,7 12,3 13,3 12,8 17,8 25,7 19,9 39 62 88 997 1.011 1.023 SE 9,5 62,8 95,8
03/2019 5,1 9,2 14,7 13,7 10,2 18,8 25,7 20,6 35 50 82 1.008 1.021 1.028 SE 7,4 62,8 19,6
02/2019 3,4 7,2 13,7 11,4 9,1 16,6 24,6 21,2 33 57 79 990 1.023 1.032 SE 7,2 122,3 0,0
Tots els anys disponibles
2019 1,8 13,0 25,9 17,0 9,1 21,7 38,4 36,6 22 59 88 990 1.015 1.032 SE 7,5 122,3 365,0
Temperatura (°C)
Humitat relativa (%)
Velocitat del vent i ràfega màxima (km/h)
Direcció del vent (°)
Pressió (hPa)
Precipitació (mm)
Nota sobre les dades: s'avisa a l'usuari de la provisionalitat i no oficialitat d'aquestes dades
Logo AVAMET blanc
Web allotjada a Sollutia
Llicència de Creative CommonsLa web d'AVAMET i els seus continguts estan subjectes a una llicència de
Reconeixement - No Comercial - Compartir igual
Últimes estacions:  Altea - Com. Regants (Soci), Almoines (Inforatge), Beniparrell (Inforatge), Albal (Inforatge), Almussafes - Parc Industrial (Inforatge), La Vilavella (Soci), la Serratella (soci) - - -